Time;durP1;ratioP1;P1;durP2;ratioP2;P2;SDS_P1;SDS_P2;PMS_P1;PMS_P2;Temp;Humidity;BMP_temperature;BMP_pressure;BME280_temperature;BME280_humidity;BME280_pressure;Samples;Min_cycle;Max_cycle;Signal;HPM_P1;HPM_P2
2023/09/20 00:01:24;;;;;;;4.73;1.70;;;21.20;93.00;;;;;;4994691;28;20567;-90
2023/09/20 00:03:50;;;;;;;3.10;1.90;;;21.20;92.90;;;;;;5009005;28;20169;-90
2023/09/20 00:06:17;;;;;;;5.93;1.60;;;21.20;93.00;;;;;;4998154;28;20173;-89
2023/09/20 00:08:47;;;;;;;4.27;1.43;;;21.20;92.90;;;;;;5009282;28;20334;-89
2023/09/20 00:11:18;;;;;;;3.70;1.50;;;21.10;93.20;;;;;;4996030;28;20448;-89
2023/09/20 00:13:45;;;;;;;2.73;1.80;;;21.10;93.30;;;;;;5024645;28;20308;-89
2023/09/20 00:16:11;;;;;;;3.23;1.57;;;21.10;93.40;;;;;;4996810;28;20180;-89
2023/09/20 00:18:37;;;;;;;3.17;1.63;;;21.00;93.60;;;;;;5000437;28;20177;-89
2023/09/20 00:21:04;;;;;;;5.67;1.50;;;21.00;93.50;;;;;;5014008;28;20187;-90
2023/09/20 00:23:30;;;;;;;4.50;1.83;;;21.00;93.60;;;;;;5038612;28;20212;-89
2023/09/20 00:25:57;;;;;;;3.07;1.70;;;20.90;93.80;;;;;;5027941;28;20235;-89
2023/09/20 00:28:23;;;;;;;4.10;1.67;;;21.00;93.90;;;;;;5009122;28;20238;-88
2023/09/20 00:30:49;;;;;;;2.90;1.57;;;21.10;93.60;;;;;;5007628;28;20188;-89
2023/09/20 00:33:15;;;;;;;3.27;1.57;;;21.00;93.70;;;;;;5011284;28;20177;-90
2023/09/20 00:35:40;;;;;;;2.60;1.60;;;21.00;93.70;;;;;;5006454;28;20215;-89
2023/09/20 00:38:09;;;;;;;4.17;1.80;;;21.10;93.80;;;;;;5032575;28;20611;-89
2023/09/20 00:40:37;;;;;;;5.43;1.80;;;21.10;93.60;;;;;;5000561;28;20184;-89
2023/09/20 00:43:07;;;;;;;2.53;1.70;;;21.10;93.70;;;;;;4997171;28;20173;-89
2023/09/20 00:45:40;;;;;;;5.30;1.80;;;21.10;94.00;;;;;;5005206;28;20252;-90
2023/09/20 00:48:07;;;;;;;4.00;1.90;;;21.10;93.80;;;;;;4993528;28;20265;-89
2023/09/20 00:50:35;;;;;;;3.43;1.60;;;21.10;93.70;;;;;;5031184;28;20227;-89
2023/09/20 00:53:06;;;;;;;2.33;1.60;;;21.10;93.70;;;;;;4995171;28;20231;-88
2023/09/20 00:55:34;;;;;;;2.77;1.77;;;21.10;93.80;;;;;;5003173;28;20215;-89
2023/09/20 00:58:07;;;;;;;4.90;1.80;;;21.10;93.80;;;;;;5015344;28;20212;-89
2023/09/20 01:00:36;;;;;;;3.50;1.57;;;21.10;93.90;;;;;;5020778;28;20266;-89
2023/09/20 01:03:02;;;;;;;3.63;1.90;;;21.10;93.90;;;;;;5013937;28;20173;-88
2023/09/20 01:05:34;;;;;;;3.10;1.70;;;21.10;94.00;;;;;;5001453;28;20192;-89
2023/09/20 01:08:01;;;;;;;3.27;1.60;;;21.10;94.00;;;;;;5012647;28;20184;-89
2023/09/20 01:10:31;;;;;;;2.23;1.73;;;21.00;94.10;;;;;;5033467;28;20277;-89
2023/09/20 01:13:07;;;;;;;3.07;1.60;;;21.10;94.10;;;;;;5012804;28;20192;-89
2023/09/20 01:15:34;;;;;;;2.63;1.70;;;21.00;94.20;;;;;;5001971;28;20628;-89
2023/09/20 01:18:03;;;;;;;3.60;1.50;;;21.10;94.50;;;;;;5011076;28;20435;-89
2023/09/20 01:20:36;;;;;;;4.00;1.63;;;21.10;94.10;;;;;;5003993;28;20177;-89
2023/09/20 01:23:03;;;;;;;2.97;1.40;;;21.10;94.20;;;;;;5010825;28;20238;-89
2023/09/20 01:25:31;;;;;;;3.20;1.53;;;21.00;94.30;;;;;;5023006;23;20217;-79
2023/09/20 01:28:00;;;;;;;2.27;1.60;;;21.00;94.30;;;;;;5008534;28;20184;-79
2023/09/20 01:30:28;;;;;;;4.77;1.97;;;21.10;94.50;;;;;;5010975;28;20190;-79
2023/09/20 01:33:02;;;;;;;3.33;1.60;;;21.00;94.30;;;;;;5011356;28;20166;-78
2023/09/20 01:35:29;;;;;;;3.13;1.63;;;21.00;94.60;;;;;;5013092;28;20173;-80
2023/09/20 01:37:56;;;;;;;3.83;1.83;;;20.90;94.50;;;;;;5012023;28;20681;-80
2023/09/20 01:40:26;;;;;;;3.03;1.60;;;21.00;94.50;;;;;;5010382;28;20243;-79
2023/09/20 01:42:53;;;;;;;6.03;1.60;;;21.10;94.50;;;;;;5012111;28;20197;-79
2023/09/20 01:45:20;;;;;;;3.90;1.80;;;21.00;94.60;;;;;;5012161;28;20228;-80
2023/09/20 01:48:00;;;;;;;3.00;1.70;;;21.00;94.60;;;;;;5011483;28;20262;-79
2023/09/20 01:50:26;;;;;;;3.43;1.60;;;21.10;94.60;;;;;;5011836;28;20189;-80
2023/09/20 01:52:58;;;;;;;3.67;1.63;;;21.10;94.80;;;;;;5012338;28;20188;-80
2023/09/20 01:55:27;;;;;;;3.37;1.50;;;21.00;94.60;;;;;;5012964;28;20280;-80
2023/09/20 01:57:59;;;;;;;4.13;1.80;;;21.10;94.60;;;;;;5011663;28;20220;-79
2023/09/20 02:00:30;;;;;;;2.30;1.73;;;21.00;94.70;;;;;;5011498;28;20181;-80
2023/09/20 02:02:57;;;;;;;3.27;1.63;;;21.00;94.80;;;;;;5012496;28;20409;-79
2023/09/20 02:05:24;;;;;;;2.33;1.63;;;21.00;94.90;;;;;;5012423;28;20189;-79
2023/09/20 02:07:57;;;;;;;3.13;1.70;;;21.00;94.90;;;;;;5011993;28;20202;-80
2023/09/20 02:10:23;;;;;;;2.77;1.60;;;21.00;95.00;;;;;;5012805;28;20200;-79
2023/09/20 02:12:54;;;;;;;3.37;1.63;;;21.00;95.20;;;;;;5016574;28;20477;-79
2023/09/20 02:15:21;;;;;;;2.27;1.57;;;21.00;95.10;;;;;;5018083;28;20181;-79
2023/09/20 02:17:48;;;;;;;3.27;1.80;;;20.90;95.20;;;;;;5018014;28;20263;-79
2023/09/20 02:20:19;;;;;;;3.37;1.70;;;21.00;95.20;;;;;;5018247;28;20308;-80
2023/09/20 02:22:47;;;;;;;3.47;1.63;;;21.00;95.10;;;;;;5019233;28;20169;-79
2023/09/20 02:25:14;;;;;;;4.23;1.80;;;20.90;95.20;;;;;;5018402;28;20190;-79
2023/09/20 02:27:42;;;;;;;2.20;1.60;;;20.90;95.60;;;;;;5017096;28;20219;-79
2023/09/20 02:30:19;;;;;;;2.70;1.33;;;20.80;95.80;;;;;;5016480;28;20188;-80
2023/09/20 02:32:51;;;;;;;3.80;1.50;;;20.70;96.10;;;;;;5015875;28;20212;-79
2023/09/20 02:35:16;;;;;;;2.87;1.53;;;20.70;96.30;;;;;;5016189;28;20224;-79
2023/09/20 02:37:43;;;;;;;4.13;1.93;;;20.70;96.10;;;;;;5015726;28;20241;-79
2023/09/20 02:40:19;;;;;;;2.80;1.53;;;20.80;96.30;;;;;;5015273;28;20177;-79
2023/09/20 02:42:47;;;;;;;3.97;1.70;;;20.70;96.50;;;;;;5013419;28;20276;-79
2023/09/20 02:45:13;;;;;;;3.87;1.87;;;20.60;96.60;;;;;;5014026;28;20239;-79
2023/09/20 02:47:43;;;;;;;2.97;2.03;;;20.70;96.40;;;;;;5014511;28;20177;-80
2023/09/20 02:50:11;;;;;;;4.67;1.90;;;20.80;96.30;;;;;;5014343;28;20166;-79
2023/09/20 02:52:40;;;;;;;4.30;1.70;;;20.70;96.60;;;;;;5013626;28;20193;-79
2023/09/20 02:55:13;;;;;;;3.87;1.93;;;20.60;96.70;;;;;;5015087;28;20246;-79
2023/09/20 02:57:42;;;;;;;2.60;1.60;;;20.70;96.60;;;;;;5016544;28;20209;-79
2023/09/20 03:00:14;;;;;;;3.73;1.77;;;20.70;96.60;;;;;;5016838;28;20235;-80
2023/09/20 03:02:45;;;;;;;4.90;1.90;;;20.70;96.70;;;;;;5016301;28;20455;-79
2023/09/20 03:05:18;;;;;;;3.97;1.70;;;20.70;96.60;;;;;;5017297;28;20248;-79
2023/09/20 03:07:44;;;;;;;3.70;1.93;;;20.70;96.60;;;;;;5017002;28;20278;-79
2023/09/20 03:10:14;;;;;;;4.23;1.90;;;20.80;96.80;;;;;;5017436;28;20241;-80
2023/09/20 03:12:44;;;;;;;3.37;1.67;;;20.60;96.90;;;;;;5016036;28;20338;-79
2023/09/20 03:15:11;;;;;;;3.67;1.80;;;20.70;97.10;;;;;;5016785;28;20193;-79
2023/09/20 03:17:39;;;;;;;2.87;1.50;;;20.60;97.00;;;;;;5017094;28;20306;-80
2023/09/20 03:20:16;;;;;;;4.17;1.83;;;20.60;97.30;;;;;;5016739;28;20170;-80
2023/09/20 03:22:42;;;;;;;3.83;1.70;;;20.70;97.10;;;;;;5016645;28;20188;-79
2023/09/20 03:25:13;;;;;;;2.30;1.70;;;20.70;97.20;;;;;;5016882;28;20205;-79
2023/09/20 03:27:42;;;;;;;4.00;1.70;;;20.60;97.40;;;;;;5016527;28;20201;-79
2023/09/20 03:30:20;;;;;;;4.33;1.80;;;20.50;98.00;;;;;;5016469;28;20291;-79
2023/09/20 03:32:46;;;;;;;4.57;2.00;;;20.50;97.90;;;;;;5019022;28;20204;-79
2023/09/20 03:35:14;;;;;;;4.77;1.63;;;20.50;97.90;;;;;;5016477;28;20268;-80
2023/09/20 03:37:41;;;;;;;5.30;1.90;;;20.50;97.90;;;;;;5012547;28;20193;-80
2023/09/20 03:40:16;;;;;;;4.20;1.80;;;20.50;98.10;;;;;;5013864;28;20507;-79
2023/09/20 03:42:42;;;;;;;4.67;2.07;;;20.40;98.40;;;;;;5012640;28;20174;-78
2023/09/20 03:45:13;;;;;;;4.63;1.73;;;20.30;98.40;;;;;;5012125;28;20633;-79
2023/09/20 03:47:50;;;;;;;4.60;1.70;;;20.30;98.70;;;;;;5012652;28;20508;-79
2023/09/20 03:50:18;;;;;;;2.93;1.60;;;20.40;98.70;;;;;;5012516;28;20185;-80
2023/09/20 03:52:44;;;;;;;4.33;1.60;;;20.40;98.60;;;;;;5013548;28;20185;-79
2023/09/20 03:55:10;;;;;;;3.50;1.70;;;20.40;98.90;;;;;;5011114;28;20178;-79
2023/09/20 03:57:38;;;;;;;3.97;1.90;;;20.30;99.00;;;;;;5010463;28;20238;-79
2023/09/20 04:00:11;;;;;;;4.53;2.00;;;20.30;99.00;;;;;;5011517;28;20204;-79
2023/09/20 04:02:38;;;;;;;2.57;1.57;;;20.20;99.10;;;;;;5012228;28;20189;-79
2023/09/20 04:05:13;;;;;;;2.57;1.70;;;20.20;99.10;;;;;;5013303;28;20212;-79
2023/09/20 04:07:44;;;;;;;2.43;1.80;;;20.30;98.90;;;;;;5012493;28;20612;-79
2023/09/20 04:10:11;;;;;;;3.47;1.77;;;20.40;98.80;;;;;;5012260;28;20212;-79
2023/09/20 04:12:37;;;;;;;3.60;1.70;;;20.40;98.70;;;;;;5012981;28;20558;-79
2023/09/20 04:15:07;;;;;;;2.90;1.73;;;20.40;98.60;;;;;;5014071;28;20178;-79
2023/09/20 04:17:34;;;;;;;3.20;1.80;;;20.40;98.70;;;;;;5012838;28;20221;-79
2023/09/20 04:20:06;;;;;;;3.47;1.93;;;20.40;98.60;;;;;;5012269;28;20499;-79
2023/09/20 04:22:32;;;;;;;4.97;1.90;;;20.30;98.80;;;;;;5012399;28;20513;-79
2023/09/20 04:24:59;;;;;;;3.00;1.57;;;20.40;98.70;;;;;;5011649;28;20196;-79
2023/09/20 04:27:25;;;;;;;3.77;2.00;;;20.40;98.60;;;;;;5011543;28;20251;-79
2023/09/20 04:29:52;;;;;;;2.07;1.53;;;20.50;98.40;;;;;;5011537;28;20177;-79
2023/09/20 04:32:18;;;;;;;3.13;1.60;;;20.40;98.30;;;;;;5010155;28;20182;-79
2023/09/20 04:34:45;;;;;;;3.37;1.90;;;20.50;98.20;;;;;;5009636;28;20188;-79
2023/09/20 04:37:12;;;;;;;3.27;1.80;;;20.50;98.10;;;;;;5011813;28;20279;-79
2023/09/20 04:39:39;;;;;;;3.00;1.80;;;20.50;98.30;;;;;;5010443;28;20370;-79
2023/09/20 04:42:06;;;;;;;3.87;2.00;;;20.50;98.40;;;;;;5010887;28;20200;-79
2023/09/20 04:44:33;;;;;;;2.40;1.70;;;20.50;98.40;;;;;;5010258;28;20166;-80
2023/09/20 04:46:58;;;;;;;2.83;1.70;;;20.50;98.20;;;;;;5012064;28;20275;-79
2023/09/20 04:49:24;;;;;;;3.67;1.60;;;20.60;98.10;;;;;;5012900;28;20263;-78
2023/09/20 04:51:51;;;;;;;2.63;1.60;;;20.60;98.00;;;;;;5010885;28;20182;-79
2023/09/20 04:54:19;;;;;;;4.53;1.80;;;20.50;98.10;;;;;;5011568;28;20188;-80
2023/09/20 04:56:47;;;;;;;3.77;1.60;;;20.50;98.10;;;;;;5013012;28;20259;-79
2023/09/20 04:59:16;;;;;;;4.37;1.73;;;20.60;98.10;;;;;;5010934;28;20182;-79
2023/09/20 05:01:42;;;;;;;2.67;1.50;;;20.50;98.10;;;;;;5023432;23;20275;-12
2023/09/20 05:04:13;;;;;;;2.80;1.77;;;20.60;98.10;;;;;;5008150;28;20204;-11
2023/09/20 05:06:43;;;;;;;2.23;1.40;;;20.60;98.00;;;;;;5010271;28;20260;-11
2023/09/20 05:09:09;;;;;;;2.67;1.63;;;20.60;98.10;;;;;;5010442;28;20177;-10
2023/09/20 05:11:35;;;;;;;3.23;1.73;;;20.60;98.20;;;;;;5009824;28;20169;-11
2023/09/20 05:14:01;;;;;;;3.67;1.70;;;20.50;98.70;;;;;;5010910;28;20169;-12
2023/09/20 05:16:27;;;;;;;3.47;1.47;;;20.50;98.60;;;;;;5009758;28;20196;-12
2023/09/20 05:18:53;;;;;;;3.73;1.53;;;20.50;98.80;;;;;;5009900;28;20162;-11
2023/09/20 05:21:19;;;;;;;3.67;1.73;;;20.50;98.70;;;;;;5008449;28;20372;-11
2023/09/20 05:23:44;;;;;;;2.97;1.40;;;20.60;98.50;;;;;;5010127;28;20231;-12
2023/09/20 05:26:10;;;;;;;3.93;1.60;;;20.60;98.40;;;;;;5007717;28;20231;-11
2023/09/20 05:28:36;;;;;;;4.47;1.50;;;20.70;98.30;;;;;;5008689;28;20260;-12
2023/09/20 05:31:05;;;;;;;3.30;1.60;;;20.70;98.30;;;;;;5009628;28;20343;-12
2023/09/20 05:33:32;;;;;;;3.77;2.20;;;20.80;98.30;;;;;;5009584;28;20256;-12
2023/09/20 05:35:58;;;;;;;3.97;1.67;;;20.80;98.30;;;;;;5007340;28;20397;-12
2023/09/20 05:38:25;;;;;;;4.40;1.87;;;20.70;98.40;;;;;;5007131;28;20431;-11
2023/09/20 05:40:50;;;;;;;3.30;1.67;;;20.70;98.30;;;;;;5005648;28;20459;-12
2023/09/20 05:43:16;;;;;;;5.87;1.90;;;20.70;98.80;;;;;;5003818;28;20316;-12
2023/09/20 05:45:42;;;;;;;3.33;1.73;;;20.60;98.90;;;;;;5004108;28;20169;-11
2023/09/20 05:48:12;;;;;;;3.23;1.40;;;20.60;98.90;;;;;;5006998;28;20633;-12
2023/09/20 05:50:41;;;;;;;2.73;1.50;;;20.60;98.90;;;;;;5002086;28;20177;-12
2023/09/20 05:53:10;;;;;;;3.53;1.90;;;20.60;98.90;;;;;;5000275;28;20581;-12
2023/09/20 05:55:40;;;;;;;3.60;1.53;;;20.60;98.90;;;;;;5001729;28;20221;-12
2023/09/20 05:58:07;;;;;;;3.57;1.60;;;20.60;98.70;;;;;;5001882;28;20239;-11
2023/09/20 06:00:35;;;;;;;2.73;1.70;;;20.70;98.70;;;;;;5002485;28;20183;-11
2023/09/20 06:03:05;;;;;;;3.53;1.73;;;20.60;98.80;;;;;;5000848;28;20617;-12
2023/09/20 06:05:33;;;;;;;3.67;1.83;;;20.60;98.90;;;;;;5003940;28;20170;-11
2023/09/20 06:07:59;;;;;;;2.67;1.80;;;20.50;99.10;;;;;;5005750;28;20379;-12
2023/09/20 06:10:25;;;;;;;3.17;1.80;;;20.50;99.50;;;;;;5003685;28;20184;-13
2023/09/20 06:12:51;;;;;;;2.37;1.67;;;20.50;99.40;;;;;;5004607;28;20265;-12
2023/09/20 06:15:17;;;;;;;4.17;2.00;;;20.50;99.40;;;;;;5002554;28;20245;-12
2023/09/20 06:17:44;;;;;;;4.90;2.00;;;20.60;99.30;;;;;;5004510;28;20212;-12
2023/09/20 06:20:19;;;;;;;3.83;2.13;;;20.40;99.90;;;;;;5004255;28;20177;-13
2023/09/20 06:22:46;;;;;;;3.87;1.60;;;19.80;99.90;;;;;;5003328;28;20297;-12
2023/09/20 06:25:12;;;;;;;4.83;1.80;;;19.80;99.90;;;;;;5012694;28;20226;-13
2023/09/20 06:27:39;;;;;;;4.80;2.20;;;19.60;99.90;;;;;;5013907;28;20177;-13
2023/09/20 06:30:12;;;;;;;3.10;2.00;;;19.70;99.90;;;;;;5014120;28;20185;-12
2023/09/20 06:32:38;;;;;;;3.80;2.00;;;19.90;99.90;;;;;;5014389;28;20216;-12
2023/09/20 06:35:07;;;;;;;3.20;1.83;;;20.20;99.90;;;;;;5015044;28;20174;-12
2023/09/20 06:37:34;;;;;;;5.40;2.40;;;20.40;99.90;;;;;;5015347;28;20250;-12
2023/09/20 06:40:00;;;;;;;4.93;2.30;;;20.60;99.90;;;;;;5014111;28;20204;-12
2023/09/20 06:42:29;;;;;;;4.27;2.20;;;20.70;99.90;;;;;;5015324;28;20177;-13
2023/09/20 06:44:55;;;;;;;3.70;2.10;;;20.70;99.90;;;;;;5015868;28;20166;-12
2023/09/20 06:47:22;;;;;;;4.53;1.80;;;20.80;99.90;;;;;;5014679;28;20189;-13
2023/09/20 06:49:48;;;;;;;2.73;2.13;;;20.90;99.90;;;;;;5012947;28;20294;-13
2023/09/20 06:52:14;;;;;;;3.70;1.60;;;20.90;99.90;;;;;;5011168;28;20188;-12
2023/09/20 06:54:40;;;;;;;5.43;2.40;;;20.90;99.90;;;;;;5012855;28;20174;-13
2023/09/20 06:57:05;;;;;;;3.20;1.70;;;21.00;99.90;;;;;;5016052;28;20212;-13
2023/09/20 06:59:33;;;;;;;5.20;1.80;;;21.00;99.90;;;;;;5017327;28;20170;-13
2023/09/20 07:02:02;;;;;;;5.80;2.00;;;21.00;99.90;;;;;;5017312;28;20347;-13
2023/09/20 07:04:31;;;;;;;3.50;2.00;;;21.00;99.90;;;;;;5018252;28;20170;-13
2023/09/20 07:07:05;;;;;;;3.70;1.87;;;21.10;99.90;;;;;;5016797;28;20558;-13
2023/09/20 07:09:31;;;;;;;3.40;2.57;;;21.00;99.90;;;;;;5017115;28;20469;-13
2023/09/20 07:12:01;;;;;;;7.13;2.40;;;21.00;99.90;;;;;;5016300;28;20186;-14
2023/09/20 07:14:31;;;;;;;4.20;1.90;;;21.00;99.90;;;;;;5017338;28;20269;-13
2023/09/20 07:17:00;;;;;;;3.13;1.87;;;21.00;99.90;;;;;;5020229;23;20249;-13
2023/09/20 07:19:28;;;;;;;3.60;1.83;;;20.90;99.90;;;;;;5010062;28;20181;-13
2023/09/20 07:21:55;;;;;;;2.40;1.80;;;20.90;99.90;;;;;;5009400;28;20349;-13
2023/09/20 07:24:24;;;;;;;3.33;1.77;;;20.90;99.90;;;;;;5007501;28;20174;-13
2023/09/20 07:26:58;;;;;;;5.13;1.87;;;21.00;99.90;;;;;;5007316;28;20173;-13
2023/09/20 07:29:24;;;;;;;3.37;2.00;;;21.00;99.90;;;;;;5006548;28;20221;-12
2023/09/20 07:31:50;;;;;;;4.60;2.00;;;21.00;99.90;;;;;;5007097;28;20190;-13
2023/09/20 07:34:19;;;;;;;4.67;2.10;;;21.00;99.90;;;;;;5007631;28;20170;-13
2023/09/20 07:36:48;;;;;;;4.70;2.10;;;21.10;99.90;;;;;;5005973;28;20305;-14
2023/09/20 07:39:17;;;;;;;3.33;1.60;;;21.10;99.90;;;;;;5007762;28;20269;-14
2023/09/20 07:41:45;;;;;;;3.97;2.00;;;21.20;99.90;;;;;;5006216;28;20281;-13
2023/09/20 07:44:13;;;;;;;2.67;1.70;;;21.20;99.90;;;;;;5004676;28;20173;-12
2023/09/20 07:46:39;;;;;;;2.63;1.70;;;21.30;99.30;;;;;;5006838;28;20188;-13
2023/09/20 07:49:13;;;;;;;3.97;2.00;;;21.40;99.60;;;;;;5006299;28;20456;-13
2023/09/20 07:51:39;;;;;;;2.97;1.90;;;21.50;99.00;;;;;;5007662;28;20260;-13
2023/09/20 07:54:14;;;;;;;4.70;2.00;;;21.60;99.40;;;;;;5007120;28;20225;-13
2023/09/20 07:56:44;;;;;;;3.57;1.90;;;21.60;99.10;;;;;;5004918;28;20161;-13
2023/09/20 07:59:13;;;;;;;3.20;1.83;;;21.60;99.10;;;;;;5004475;28;20449;-13
2023/09/20 08:01:41;;;;;;;2.00;1.60;;;21.60;99.20;;;;;;5007613;28;20212;-12
2023/09/20 08:04:10;;;;;;;2.60;1.77;;;21.50;99.30;;;;;;5008146;28;20201;-13
2023/09/20 08:06:36;;;;;;;4.93;1.83;;;21.30;99.50;;;;;;5007779;28;20187;-13
2023/09/20 08:09:06;;;;;;;4.20;1.80;;;21.40;99.30;;;;;;5004687;28;20601;-12
2023/09/20 08:11:33;;;;;;;4.30;1.73;;;21.50;99.30;;;;;;5005381;28;20500;-13
2023/09/20 08:14:00;;;;;;;5.10;1.90;;;21.60;99.20;;;;;;5006126;28;20174;-12
2023/09/20 08:16:33;;;;;;;2.97;1.83;;;21.60;99.30;;;;;;5006710;28;20182;-13
2023/09/20 08:21:42;;;;;;;5.07;2.20;;;21.80;98.90;;;;;;5007083;28;20238;-13
2023/09/20 09:00:21;;;;;;;3.00;1.40;;;22.40;97.30;;;;;;5008125;28;20188;-12
2023/09/20 09:02:54;;;;;;;3.83;1.50;;;22.50;96.80;;;;;;5006925;28;20276;-13
2023/09/20 09:05:23;;;;;;;2.00;1.67;;;22.50;97.10;;;;;;5005443;28;20165;-13
2023/09/20 09:07:49;;;;;;;2.20;1.40;;;22.40;97.10;;;;;;5005339;28;20185;-12
2023/09/20 09:10:16;;;;;;;3.10;1.57;;;22.30;97.20;;;;;;5004522;28;20184;-13
2023/09/20 09:12:43;;;;;;;2.83;1.80;;;22.30;97.20;;;;;;5005471;28;20323;-12
2023/09/20 09:15:10;;;;;;;4.23;1.60;;;22.30;97.70;;;;;;5002699;28;20682;-13
2023/09/20 09:17:44;;;;;;;2.57;1.60;;;22.30;98.00;;;;;;5004775;28;20659;-14
2023/09/20 09:20:13;;;;;;;2.47;1.40;;;22.30;97.90;;;;;;5005694;28;20228;-13
2023/09/20 09:22:39;;;;;;;1.57;1.30;;;22.20;98.50;;;;;;5005702;28;20458;-13
2023/09/20 09:25:29;;;;;;;2.90;1.40;;;22.20;97.80;;;;;;5014300;28;20178;-13
2023/09/20 09:27:55;;;;;;;2.43;1.50;;;22.30;98.00;;;;;;5015898;28;20781;-14
2023/09/20 09:30:22;;;;;;;2.43;1.50;;;22.30;98.00;;;;;;5014098;28;20177;-13
2023/09/20 09:32:47;;;;;;;3.40;1.50;;;22.30;97.60;;;;;;5011287;28;20260;-13
2023/09/20 09:35:20;;;;;;;3.00;1.30;;;22.30;97.90;;;;;;5032874;28;20188;-14
2023/09/20 09:37:46;;;;;;;2.50;1.53;;;22.30;97.80;;;;;;4999854;28;20680;-13
2023/09/20 09:40:14;;;;;;;2.17;1.40;;;22.30;97.90;;;;;;4995395;28;20845;-13
2023/09/20 09:42:43;;;;;;;1.67;1.20;;;22.30;98.20;;;;;;4993567;28;20245;-14
2023/09/20 09:45:09;;;;;;;2.90;1.40;;;22.30;98.10;;;;;;4994795;28;20269;-13
2023/09/20 09:47:37;;;;;;;3.67;1.13;;;22.30;98.00;;;;;;4994853;28;20240;-14
2023/09/20 09:50:06;;;;;;;3.20;1.40;;;22.30;98.10;;;;;;4994969;28;20197;-13
2023/09/20 09:52:35;;;;;;;3.10;1.43;;;22.30;98.10;;;;;;4995545;28;20252;-13
2023/09/20 09:55:01;;;;;;;1.43;1.30;;;22.30;97.90;;;;;;4995522;28;20174;-14
2023/09/20 09:57:39;;;;;;;2.60;1.47;;;22.30;97.70;;;;;;4995836;28;20251;-13
2023/09/20 10:00:10;;;;;;;2.27;1.33;;;22.40;97.60;;;;;;5011938;28;20174;-12
2023/09/20 10:02:41;;;;;;;3.03;1.77;;;22.50;97.50;;;;;;5011235;28;20201;-13
2023/09/20 10:05:12;;;;;;;3.00;1.50;;;22.50;97.10;;;;;;4996237;28;20229;-14
2023/09/20 10:07:44;;;;;;;2.83;1.60;;;22.50;97.30;;;;;;4996229;28;20564;-13
2023/09/20 10:10:12;;;;;;;1.67;1.10;;;22.50;97.60;;;;;;4995830;28;20228;-14
2023/09/20 10:12:39;;;;;;;1.80;1.40;;;22.50;97.50;;;;;;4995934;28;20179;-25
2023/09/20 10:15:08;;;;;;;3.33;1.30;;;22.60;98.00;;;;;;4996453;28;20166;-13
2023/09/20 10:17:37;;;;;;;3.30;1.47;;;22.50;97.70;;;;;;4994247;28;20662;-13
2023/09/20 10:20:07;;;;;;;4.40;1.70;;;22.50;98.00;;;;;;4994148;28;20184;-14
2023/09/20 10:22:41;;;;;;;2.57;1.60;;;22.50;97.70;;;;;;4994329;28;20236;-13
2023/09/20 10:25:27;;;;;;;2.93;1.43;;;22.50;98.30;;;;;;4993407;28;20174;-13
2023/09/20 10:27:54;;;;;;;1.80;1.37;;;22.50;98.50;;;;;;4992051;28;20174;-13
2023/09/20 10:30:21;;;;;;;2.27;1.40;;;22.50;98.10;;;;;;5007239;23;20169;-13
2023/09/20 10:32:54;;;;;;;1.90;1.50;;;22.50;98.30;;;;;;5015006;28;20197;-14
2023/09/20 10:35:30;;;;;;;2.30;1.40;;;22.50;98.00;;;;;;4996789;28;20185;-14
2023/09/20 10:38:08;;;;;;;3.37;1.40;;;22.50;98.10;;;;;;5013508;28;20205;-15
2023/09/20 10:40:47;;;;;;;2.97;1.40;;;22.50;98.20;;;;;;5015766;28;20170;-14
2023/09/20 10:43:25;;;;;;;2.10;1.13;;;22.50;98.60;;;;;;4998266;28;20569;-13
2023/09/20 10:45:59;;;;;;;1.70;1.30;;;22.50;98.50;;;;;;5013776;28;20178;-13
2023/09/20 10:48:27;;;;;;;2.53;1.30;;;22.60;98.10;;;;;;5016588;28;20176;-13
2023/09/20 10:51:03;;;;;;;2.90;1.40;;;22.60;99.00;;;;;;5016071;28;20224;-14
2023/09/20 10:53:55;;;;;;;1.73;1.37;;;22.70;98.00;;;;;;5010601;28;20197;-13
2023/09/20 10:56:53;;;;;;;1.70;1.37;;;22.70;98.10;;;;;;5015895;28;20196;-13
2023/09/20 10:59:25;;;;;;;2.43;1.50;;;22.70;98.00;;;;;;5015437;28;20192;-13
2023/09/20 11:02:05;;;;;;;2.30;1.40;;;22.70;97.80;;;;;;5015544;28;20670;-14
2023/09/20 11:04:32;;;;;;;3.17;1.50;;;22.70;98.10;;;;;;5015908;28;20170;-14
2023/09/20 11:07:06;;;;;;;4.63;1.53;;;22.70;97.90;;;;;;5014669;28;20177;-14
2023/09/20 11:09:33;;;;;;;3.70;1.30;;;22.70;97.90;;;;;;5014533;28;20708;-14
2023/09/20 11:12:06;;;;;;;1.70;1.30;;;22.70;98.40;;;;;;5013888;28;20268;-15
2023/09/20 11:14:44;;;;;;;1.23;1.13;;;22.80;97.80;;;;;;5014406;28;20256;-15
2023/09/20 11:17:16;;;;;;;2.37;1.40;;;22.80;98.10;;;;;;5016577;28;20606;-14
2023/09/20 11:19:42;;;;;;;2.53;1.40;;;22.80;98.20;;;;;;5015342;28;20311;-15
2023/09/20 11:22:08;;;;;;;1.50;1.30;;;22.80;97.90;;;;;;5015951;28;20170;-13
2023/09/20 11:24:41;;;;;;;1.93;1.27;;;22.80;97.80;;;;;;5016461;28;20699;-15
2023/09/20 11:27:08;;;;;;;1.87;1.37;;;22.80;97.80;;;;;;5016491;28;20185;-15
2023/09/20 11:29:48;;;;;;;1.83;1.17;;;22.80;97.90;;;;;;5015032;28;20181;-12
2023/09/20 11:32:15;;;;;;;3.83;1.60;;;22.80;97.80;;;;;;5012355;28;20204;-14
2023/09/20 11:34:43;;;;;;;2.33;1.40;;;22.90;98.10;;;;;;5002568;28;20482;-13
2023/09/20 11:37:09;;;;;;;2.93;1.33;;;22.90;97.80;;;;;;5005125;28;20533;-15
2023/09/20 11:39:35;;;;;;;1.77;1.27;;;22.90;97.80;;;;;;5000964;28;20196;-15
2023/09/20 11:42:04;;;;;;;3.37;1.50;;;22.80;98.10;;;;;;5005148;28;20450;-14
2023/09/20 11:44:35;;;;;;;2.33;1.30;;;22.90;97.80;;;;;;5004262;28;20161;-14
2023/09/20 11:47:00;;;;;;;2.00;1.33;;;22.90;97.70;;;;;;4999792;28;20179;-14
2023/09/20 11:49:29;;;;;;;3.03;1.30;;;22.90;97.60;;;;;;5000363;28;20185;-12
2023/09/20 11:51:58;;;;;;;2.50;1.40;;;22.90;97.70;;;;;;5007719;28;20209;-13
2023/09/20 11:54:37;;;;;;;1.60;1.30;;;22.90;97.60;;;;;;5001250;28;20178;-12
2023/09/20 11:57:04;;;;;;;1.33;1.17;;;22.90;97.50;;;;;;5005739;28;20232;-13
2023/09/20 11:59:39;;;;;;;2.13;1.37;;;22.90;97.30;;;;;;5037425;28;20166;-14
2023/09/20 12:02:07;;;;;;;1.13;1.03;;;23.00;97.00;;;;;;5005810;28;20514;-13
2023/09/20 12:04:32;;;;;;;1.37;1.27;;;23.00;97.10;;;;;;5001681;28;20169;-14
2023/09/20 12:06:58;;;;;;;2.40;1.30;;;23.00;97.00;;;;;;5004215;28;20185;-14
2023/09/20 12:09:24;;;;;;;1.97;1.17;;;23.00;97.00;;;;;;5006029;28;20177;-14
2023/09/20 12:11:50;;;;;;;1.50;1.20;;;23.00;97.00;;;;;;5007167;28;20185;-13
2023/09/20 12:14:16;;;;;;;1.50;1.20;;;23.00;96.90;;;;;;5003584;28;20185;-13
2023/09/20 12:16:48;;;;;;;1.33;1.00;;;23.00;96.90;;;;;;5006517;28;20439;-14
2023/09/20 12:19:17;;;;;;;2.73;1.30;;;23.00;96.90;;;;;;5005791;28;20170;-12
2023/09/20 12:21:44;;;;;;;1.70;1.03;;;23.00;96.80;;;;;;5006955;28;20443;-13
2023/09/20 12:24:12;;;;;;;2.83;1.37;;;23.00;96.80;;;;;;5004701;28;20227;-12
2023/09/20 12:26:39;;;;;;;1.53;1.20;;;23.00;96.80;;;;;;5006438;28;20178;-13
2023/09/20 12:29:06;;;;;;;1.40;1.03;;;23.00;96.70;;;;;;5005286;28;20169;-12
2023/09/20 12:31:32;;;;;;;1.87;1.10;;;23.00;96.60;;;;;;5006311;28;20216;-12
2023/09/20 12:34:00;;;;;;;3.40;1.40;;;23.00;96.30;;;;;;5006735;28;20177;-14
2023/09/20 12:36:29;;;;;;;2.17;1.30;;;23.10;95.30;;;;;;5006140;28;20197;-13
2023/09/20 12:38:55;;;;;;;2.10;1.37;;;23.10;95.40;;;;;;5004636;28;20213;-13
2023/09/20 12:41:24;;;;;;;2.03;1.30;;;23.10;95.90;;;;;;5007265;28;20188;-12
2023/09/20 12:43:50;;;;;;;2.20;1.40;;;23.10;95.40;;;;;;5005906;28;20548;-12
2023/09/20 12:46:16;;;;;;;2.17;1.30;;;23.10;95.70;;;;;;5005940;28;20236;-13
2023/09/20 12:48:51;;;;;;;1.90;1.30;;;23.10;94.40;;;;;;5006512;28;20228;-13
2023/09/20 12:51:17;;;;;;;1.97;1.40;;;23.10;95.40;;;;;;5005490;28;20177;-14
2023/09/20 12:53:43;;;;;;;1.50;1.27;;;23.10;95.30;;;;;;5004880;28;20166;-12
2023/09/20 12:56:11;;;;;;;3.00;1.30;;;23.10;95.40;;;;;;5007253;28;20177;-12
2023/09/20 12:58:39;;;;;;;3.07;1.47;;;23.10;95.50;;;;;;5007122;28;20236;-14
2023/09/20 13:01:07;;;;;;;2.20;1.53;;;23.10;94.40;;;;;;5008920;28;20173;-13
2023/09/20 13:03:37;;;;;;;2.43;1.40;;;23.10;95.10;;;;;;5010159;28;20446;-15
2023/09/20 13:06:04;;;;;;;2.33;1.37;;;23.10;95.20;;;;;;5010212;28;20232;-13
2023/09/20 13:08:29;;;;;;;2.50;1.23;;;23.20;95.60;;;;;;5006698;28;20200;-12
2023/09/20 13:10:55;;;;;;;2.93;1.37;;;23.10;95.40;;;;;;5006909;28;20260;-13
2023/09/20 13:13:21;;;;;;;5.03;2.90;;;23.00;95.80;;;;;;5005887;28;20177;-12
2023/09/20 13:15:47;;;;;;;6.23;1.80;;;23.00;96.40;;;;;;5003707;28;20291;-12
2023/09/20 13:18:13;;;;;;;5.80;1.90;;;23.00;96.70;;;;;;5001987;28;20233;-13
2023/09/20 13:20:42;;;;;;;5.57;3.53;;;23.00;96.90;;;;;;5003836;28;20621;-13
2023/09/20 13:23:09;;;;;;;3.07;1.70;;;23.00;96.90;;;;;;5005356;28;20256;-13
2023/09/20 13:25:35;;;;;;;3.00;1.60;;;23.10;96.70;;;;;;5005598;28;20169;-13
2023/09/20 13:28:02;;;;;;;3.80;1.93;;;23.10;97.20;;;;;;5004039;28;20265;-13
2023/09/20 13:30:28;;;;;;;3.13;1.70;;;23.10;96.90;;;;;;5002892;28;20364;-13
2023/09/20 13:32:55;;;;;;;2.47;1.60;;;23.10;96.90;;;;;;5005079;28;20242;-13
2023/09/20 13:35:21;;;;;;;3.70;1.83;;;23.10;96.70;;;;;;5002057;28;20349;-13